(°C)
16°
14°
13°
11°
10°
(°C)
12°
11°
10°
ENE
NE
NE
NE
NE
E
ESE
(km/h)
12-25
10-21
8-17
7-19
7-19
8-13
7-17
(mm)
0
0
0
0
0
0
0
(%)
1
1
0
0
6
6
0

Elevazione del sole

/ 10.4°
sun-icon
UV 3
05:29
19:41
Luna crescente (81°)
09:36
02:22

METAR per 52.17°N 20.97°E (EPWA)

Ora Condizioni Temperatura/
Punto di rugiada
Vento Visibilità Tempo Nuvole Pressione Cambiamento Grezzo
VFR 16°C / 0°C 110º 9kt >10km - Clouds and Visibility OK 1016 No Significant change EPWA 191600Z 11009KT CAVOK 16/00 Q1016 NOSIG
VFR 17°C / 0°C 100º variable 080º to 140º 12kt >10km - Clouds and Visibility OK 1016 No Significant change EPWA 191530Z 10012KT 080V140 CAVOK 17/00 Q1016 NOSIG
VFR 17°C / 1°C 100º variable 060º to 120º 9kt >10km - Clouds and Visibility OK 1016 No Significant change EPWA 191500Z 10009KT 060V120 CAVOK 17/01 Q1016 NOSIG
VFR 18°C / 1°C 80º variable 050º to 110º 8kt >10km - Clouds and Visibility OK 1016 No Significant change EPWA 191430Z 08008KT 050V110 CAVOK 18/01 Q1016 NOSIG
VFR 17°C / 0°C 110º 13kt >10km - Clouds and Visibility OK 1016 No Significant change EPWA 191400Z 11013KT CAVOK 17/00 Q1016 NOSIG
VFR 17°C / 1°C 100º variable 060º to 130º 13kt >10km - Clouds and Visibility OK 1016 No Significant change EPWA 191330Z 10013KT 060V130 CAVOK 17/01 Q1016 NOSIG
VFR 17°C / 0°C 100º 14kt >10km - Clouds and Visibility OK 1017 No Significant change EPWA 191300Z 10014KT CAVOK 17/00 Q1017 NOSIG
VFR 18°C / 3°C 100º variable 050º to 150º 10kt >10km - Clouds and Visibility OK 1017 No Significant change EPWA 191230Z 10010KT 050V150 CAVOK 18/03 Q1017 NOSIG
VFR 17°C / 1°C 100º variable 070º to 130º 12kt >10km - Few Clouds 4800ft 1017 No Significant change EPWA 191200Z 10012KT 070V130 9999 FEW048 17/01 Q1017 NOSIG
VFR 17°C / 2°C 110º variable 070º to 140º 10kt >10km - Few Clouds 4800ft 1017 No Significant change EPWA 191130Z 11010KT 070V140 9999 FEW048 17/02 Q1017 NOSIG
VFR 17°C / 2°C 90º 12kt >10km - Few Clouds 4800ft 1017 No Significant change EPWA 191100Z 09012KT 9999 FEW048 17/02 Q1017 NOSIG
VFR 17°C / 4°C 120º variable 090º to 150º 11kt >10km - Few Clouds 4800ft 1017 No Significant change EPWA 191030Z 12011KT 090V150 9999 FEW048 17/04 Q1017 NOSIG
VFR 17°C / 6°C 100º variable 070º to 150º 9kt >10km - Few Clouds 3800ft 1017 No Significant change EPWA 191000Z 10009KT 070V150 9999 FEW038 17/06 Q1017 NOSIG
VFR 16°C / 7°C 100º variable 060º to 160º 9kt Gust 21kt >10km - Few Clouds 3400ft 1017 No Significant change EPWA 190930Z 10009G21KT 060V160 9999 FEW034 16/07 Q1017 NOSIG
VFR 16°C / 7°C 110º 10kt >10km - Few Clouds 2900ft 1017 No Significant change EPWA 190900Z 11010KT 9999 FEW029 16/07 Q1017 NOSIG
VFR 15°C / 9°C 80º variable 050º to 110º 7kt >10km - Few Clouds 2500ft 1018 No Significant change EPWA 190830Z 08007KT 050V110 9999 FEW025 15/09 Q1018 NOSIG
VFR 14°C / 9°C 60º variable 040º to 100º 7kt >10km - Clouds and Visibility OK 1018 No Significant change EPWA 190800Z 06007KT 040V100 CAVOK 14/09 Q1018 NOSIG
VFR 14°C / 8°C 40º 5kt >10km - Clouds and Visibility OK 1018 No Significant change EPWA 190730Z 04005KT CAVOK 14/08 Q1018 NOSIG
VFR 12°C / 8°C 20º variable 350º to 050º 4kt >10km - Clouds and Visibility OK 1017 No Significant change EPWA 190700Z 02004KT 350V050 CAVOK 12/08 Q1017 NOSIG
VFR 11°C / 8°C 10º 7kt >10km - Clouds and Visibility OK 1018 No Significant change EPWA 190630Z 01007KT CAVOK 11/08 Q1018 NOSIG
VFR 10°C / 8°C 60º variable 020º to 090º 5kt >10km - Few Clouds 600ft 1018 No Significant change EPWA 190600Z 06005KT 020V090 9999 FEW006 10/08 Q1018 NOSIG
MVFR 9°C / 8°C 60º 6kt 8000m - Few Clouds 500ft 1018 No Significant change EPWA 190530Z 06006KT 8000 FEW005 09/08 Q1018 NOSIG
MVFR 9°C / 8°C 70º variable 050º to 120º 4kt 7000m - Clear 1018 No Significant change EPWA 190500Z 07004KT 050V120 7000 NSC 09/08 Q1018 NOSIG
MVFR 7°C / 7°C variable 2kt 7000m shallow Fog Clear 1018 No Significant change EPWA 190430Z VRB02KT 7000 MIFG NSC 07/07 Q1018 NOSIG

VFR

16°C / 0°C

[Più]
Vento 110º 9kt
Visibilità >10km
Tempo -
Nuvole Clouds and Visibility OK
Pressione 1016
Cambiamento No Significant change
Grezzo EPWA 191600Z 11009KT CAVOK 16/00 Q1016 NOSIG

VFR

17°C / 0°C

[Più]
Vento 100º variable 080º to 140º 12kt
Visibilità >10km
Tempo -
Nuvole Clouds and Visibility OK
Pressione 1016
Cambiamento No Significant change
Grezzo EPWA 191530Z 10012KT 080V140 CAVOK 17/00 Q1016 NOSIG

VFR

17°C / 1°C

[Più]
Vento 100º variable 060º to 120º 9kt
Visibilità >10km
Tempo -
Nuvole Clouds and Visibility OK
Pressione 1016
Cambiamento No Significant change
Grezzo EPWA 191500Z 10009KT 060V120 CAVOK 17/01 Q1016 NOSIG

VFR

18°C / 1°C

[Più]
Vento 80º variable 050º to 110º 8kt
Visibilità >10km
Tempo -
Nuvole Clouds and Visibility OK
Pressione 1016
Cambiamento No Significant change
Grezzo EPWA 191430Z 08008KT 050V110 CAVOK 18/01 Q1016 NOSIG

VFR

17°C / 0°C

[Più]
Vento 110º 13kt
Visibilità >10km
Tempo -
Nuvole Clouds and Visibility OK
Pressione 1016
Cambiamento No Significant change
Grezzo EPWA 191400Z 11013KT CAVOK 17/00 Q1016 NOSIG

VFR

17°C / 1°C

[Più]
Vento 100º variable 060º to 130º 13kt
Visibilità >10km
Tempo -
Nuvole Clouds and Visibility OK
Pressione 1016
Cambiamento No Significant change
Grezzo EPWA 191330Z 10013KT 060V130 CAVOK 17/01 Q1016 NOSIG

VFR

17°C / 0°C

[Più]
Vento 100º 14kt
Visibilità >10km
Tempo -
Nuvole Clouds and Visibility OK
Pressione 1017
Cambiamento No Significant change
Grezzo EPWA 191300Z 10014KT CAVOK 17/00 Q1017 NOSIG

VFR

18°C / 3°C

[Più]
Vento 100º variable 050º to 150º 10kt
Visibilità >10km
Tempo -
Nuvole Clouds and Visibility OK
Pressione 1017
Cambiamento No Significant change
Grezzo EPWA 191230Z 10010KT 050V150 CAVOK 18/03 Q1017 NOSIG

VFR

17°C / 1°C

[Più]
Vento 100º variable 070º to 130º 12kt
Visibilità >10km
Tempo -
Nuvole Few Clouds 4800ft
Pressione 1017
Cambiamento No Significant change
Grezzo EPWA 191200Z 10012KT 070V130 9999 FEW048 17/01 Q1017 NOSIG

VFR

17°C / 2°C

[Più]
Vento 110º variable 070º to 140º 10kt
Visibilità >10km
Tempo -
Nuvole Few Clouds 4800ft
Pressione 1017
Cambiamento No Significant change
Grezzo EPWA 191130Z 11010KT 070V140 9999 FEW048 17/02 Q1017 NOSIG

VFR

17°C / 2°C

[Più]
Vento 90º 12kt
Visibilità >10km
Tempo -
Nuvole Few Clouds 4800ft
Pressione 1017
Cambiamento No Significant change
Grezzo EPWA 191100Z 09012KT 9999 FEW048 17/02 Q1017 NOSIG

VFR

17°C / 4°C

[Più]
Vento 120º variable 090º to 150º 11kt
Visibilità >10km
Tempo -
Nuvole Few Clouds 4800ft
Pressione 1017
Cambiamento No Significant change
Grezzo EPWA 191030Z 12011KT 090V150 9999 FEW048 17/04 Q1017 NOSIG

VFR

17°C / 6°C

[Più]
Vento 100º variable 070º to 150º 9kt
Visibilità >10km
Tempo -
Nuvole Few Clouds 3800ft
Pressione 1017
Cambiamento No Significant change
Grezzo EPWA 191000Z 10009KT 070V150 9999 FEW038 17/06 Q1017 NOSIG

VFR

16°C / 7°C

[Più]
Vento 100º variable 060º to 160º 9kt Gust 21kt
Visibilità >10km
Tempo -
Nuvole Few Clouds 3400ft
Pressione 1017
Cambiamento No Significant change
Grezzo EPWA 190930Z 10009G21KT 060V160 9999 FEW034 16/07 Q1017 NOSIG

VFR

16°C / 7°C

[Più]
Vento 110º 10kt
Visibilità >10km
Tempo -
Nuvole Few Clouds 2900ft
Pressione 1017
Cambiamento No Significant change
Grezzo EPWA 190900Z 11010KT 9999 FEW029 16/07 Q1017 NOSIG

VFR

15°C / 9°C

[Più]
Vento 80º variable 050º to 110º 7kt
Visibilità >10km
Tempo -
Nuvole Few Clouds 2500ft
Pressione 1018
Cambiamento No Significant change
Grezzo EPWA 190830Z 08007KT 050V110 9999 FEW025 15/09 Q1018 NOSIG

VFR

14°C / 9°C

[Più]
Vento 60º variable 040º to 100º 7kt
Visibilità >10km
Tempo -
Nuvole Clouds and Visibility OK
Pressione 1018
Cambiamento No Significant change
Grezzo EPWA 190800Z 06007KT 040V100 CAVOK 14/09 Q1018 NOSIG

VFR

14°C / 8°C

[Più]
Vento 40º 5kt
Visibilità >10km
Tempo -
Nuvole Clouds and Visibility OK
Pressione 1018
Cambiamento No Significant change
Grezzo EPWA 190730Z 04005KT CAVOK 14/08 Q1018 NOSIG

VFR

12°C / 8°C

[Più]
Vento 20º variable 350º to 050º 4kt
Visibilità >10km
Tempo -
Nuvole Clouds and Visibility OK
Pressione 1017
Cambiamento No Significant change
Grezzo EPWA 190700Z 02004KT 350V050 CAVOK 12/08 Q1017 NOSIG

VFR

11°C / 8°C

[Più]
Vento 10º 7kt
Visibilità >10km
Tempo -
Nuvole Clouds and Visibility OK
Pressione 1018
Cambiamento No Significant change
Grezzo EPWA 190630Z 01007KT CAVOK 11/08 Q1018 NOSIG

VFR

10°C / 8°C

[Più]
Vento 60º variable 020º to 090º 5kt
Visibilità >10km
Tempo -
Nuvole Few Clouds 600ft
Pressione 1018
Cambiamento No Significant change
Grezzo EPWA 190600Z 06005KT 020V090 9999 FEW006 10/08 Q1018 NOSIG

MVFR

9°C / 8°C

[Più]
Vento 60º 6kt
Visibilità 8000m
Tempo -
Nuvole Few Clouds 500ft
Pressione 1018
Cambiamento No Significant change
Grezzo EPWA 190530Z 06006KT 8000 FEW005 09/08 Q1018 NOSIG

MVFR

9°C / 8°C

[Più]
Vento 70º variable 050º to 120º 4kt
Visibilità 7000m
Tempo -
Nuvole Clear
Pressione 1018
Cambiamento No Significant change
Grezzo EPWA 190500Z 07004KT 050V120 7000 NSC 09/08 Q1018 NOSIG

MVFR

7°C / 7°C

[Più]
Vento variable 2kt
Visibilità 7000m
Tempo shallow Fog
Nuvole Clear
Pressione 1018
Cambiamento No Significant change
Grezzo EPWA 190430Z VRB02KT 7000 MIFG NSC 07/07 Q1018 NOSIG

TAF per 52.17°N 20.97°E (EPWA)

From till


From till Wind 100º 14kt. Visibility 10km or more. Nil Significant Cloud.
With 30% probability, Temporarly from till Light Showers Rain . Broken Clouds 3000ft.
Becoming from till Wind 50º 4kt. Visibility 10km or more. Nil Significant Cloud.
Temporarly from till Light Showers Rain . Broken Clouds 2000ft.
With 40% probability, Temporarly from till Visibility 4000m. Thunderstorm Rain .

Grezzo: TAF EPWA 191430Z 1915/2015 10014KT CAVOK PROB30 TEMPO 1917/1921 -SHRA BKN030CB BECMG 1921/1924 05004KT TEMPO 2010/2015 -SHRA BKN020CB PROB40 TEMPO 2012/2015 4000 TSRA

Tempo in atto per 52.17°N 20.97°E: immagine satellitare e pioggia

  • Precipitazioni:
  • <1 mm
  • 1-2 mm
  • 2-5 mm
  • >5 mm

Il segnaposto è situato a 52.17°N 20.97°E. [Più]

L'immagine satellitare in tempo reale combina la luce visibile durante il giorno con la radiazione infrarossa durante la notte. Di notte l'immagine non è scura poiché i raggi infrarossi possono rilevare differenze di temperatura. Purtroppo, le nuvole basse e la nebbia sono difficili da distinguere dalla temperatura del suolo e possono pertanto essere quasi invisibili durante la notte. Le immagini satellitari Meteosat per l'Europa vengono aggiornate in tempo reale ogni 5 minuti. Le immagini GOES-16 / GOES-17 (Nord e Sud America) e Himawari (Asia) vengono aggiornate ogni 10 minuti.

Le precipitazioni sono stimate da radar e satellite. Una precipitazione notturna stimata da satellite è meno accurata di una diurna. Le croci arancioni identificano i fulmini caduti (in Europa).

Copyright 2021 EUMETSAT / meteoblue. Fulminazioni fornite da nowcast.